createdAt,value
2018-09-11T00:02:19.489Z,17.50
2018-09-11T00:04:47.540Z,17.50
2018-09-11T00:07:15.679Z,17.50
2018-09-11T00:09:43.711Z,17.60
2018-09-11T00:12:11.755Z,17.60
2018-09-11T00:14:39.786Z,17.60
2018-09-11T00:17:07.865Z,17.60
2018-09-11T00:19:35.904Z,17.60
2018-09-11T00:22:03.940Z,17.60
2018-09-11T00:24:32.007Z,17.60
2018-09-11T00:27:00.043Z,17.60
2018-09-11T00:29:28.075Z,17.60
2018-09-11T00:31:56.192Z,17.60
2018-09-11T00:34:24.263Z,17.60
2018-09-11T00:36:52.312Z,17.60
2018-09-11T00:39:20.363Z,17.60
2018-09-11T00:41:48.470Z,17.70
2018-09-11T00:44:16.487Z,17.70
2018-09-11T00:46:44.523Z,17.70
2018-09-11T00:49:13.595Z,17.70
2018-09-11T00:51:41.666Z,17.70
2018-09-11T00:54:09.684Z,17.70
2018-09-11T00:56:37.729Z,17.70
2018-09-11T00:59:05.809Z,17.80
2018-09-11T01:01:33.979Z,17.80
2018-09-11T01:04:02.034Z,17.80
2018-09-11T01:06:30.090Z,17.80
2018-09-11T01:08:58.176Z,17.80
2018-09-11T01:11:26.228Z,17.80
2018-09-11T01:13:54.266Z,17.80
2018-09-11T01:16:22.304Z,17.80
2018-09-11T01:18:50.338Z,17.80
2018-09-11T01:21:18.419Z,17.80
2018-09-11T01:23:46.447Z,17.80
2018-09-11T01:26:14.488Z,17.80
2018-09-11T01:28:42.545Z,17.80
2018-09-11T01:31:10.574Z,17.80
2018-09-11T01:33:39.222Z,17.80
2018-09-11T01:36:07.259Z,17.80
2018-09-11T01:38:35.315Z,17.80
2018-09-11T01:41:03.368Z,17.80
2018-09-11T01:43:31.417Z,17.80
2018-09-11T01:45:59.457Z,17.80
2018-09-11T01:48:27.503Z,17.70
2018-09-11T01:50:55.543Z,17.80
2018-09-11T01:53:23.648Z,17.80
2018-09-11T01:55:51.700Z,17.80
2018-09-11T01:58:19.740Z,17.70
2018-09-11T02:00:47.776Z,17.70
2018-09-11T02:03:15.828Z,17.80
2018-09-11T02:05:43.868Z,17.80
2018-09-11T02:08:11.907Z,17.80
2018-09-11T02:10:40.048Z,17.80
2018-09-11T02:13:08.091Z,17.80
2018-09-11T02:15:36.147Z,17.70
2018-09-11T02:18:04.207Z,17.70
2018-09-11T02:20:32.244Z,17.70
2018-09-11T02:23:00.403Z,17.70
2018-09-11T02:25:28.465Z,17.70
2018-09-11T02:27:57.465Z,17.70
2018-09-11T02:30:25.532Z,17.70
2018-09-11T02:32:53.603Z,17.60
2018-09-11T02:35:21.709Z,17.60
2018-09-11T02:37:49.843Z,17.60
2018-09-11T02:40:17.894Z,17.60
2018-09-11T02:42:45.949Z,17.60
2018-09-11T02:45:13.988Z,17.60
2018-09-11T02:47:42.032Z,17.60
2018-09-11T02:50:10.300Z,17.50
2018-09-11T02:52:38.580Z,17.50
2018-09-11T02:55:06.948Z,17.50
2018-09-11T02:57:34.995Z,17.50
2018-09-11T03:00:03.031Z,17.40
2018-09-11T03:02:31.152Z,17.40
2018-09-11T03:04:59.204Z,17.40
2018-09-11T03:07:27.244Z,17.40
2018-09-11T03:09:55.291Z,17.40
2018-09-11T03:12:23.335Z,17.30
2018-09-11T03:14:51.398Z,17.30
2018-09-11T03:17:19.444Z,17.40
2018-09-11T03:19:47.495Z,17.30
2018-09-11T03:22:15.630Z,17.30
2018-09-11T03:24:43.675Z,17.30
2018-09-11T03:27:11.711Z,17.30
2018-09-11T03:29:39.835Z,17.30
2018-09-11T03:32:07.877Z,17.20
2018-09-11T03:34:35.935Z,17.20
2018-09-11T03:37:03.963Z,17.20
2018-09-11T03:39:32.003Z,17.10
2018-09-11T03:42:00.046Z,17.10
2018-09-11T03:44:28.104Z,17.00
2018-09-11T03:46:56.160Z,17.00
2018-09-11T03:49:24.201Z,17.00
2018-09-11T03:51:52.245Z,17.00
2018-09-11T03:54:20.548Z,17.00
2018-09-11T03:56:48.820Z,17.00
2018-09-11T03:59:16.889Z,17.00
2018-09-11T04:01:44.914Z,16.90
2018-09-11T04:04:12.983Z,16.90
2018-09-11T04:06:41.027Z,16.90
2018-09-11T04:09:10.315Z,16.90
2018-09-11T04:11:38.362Z,16.90
2018-09-11T04:14:06.436Z,16.90
2018-09-11T04:16:34.523Z,16.90
2018-09-11T04:19:02.560Z,16.90
2018-09-11T04:21:30.606Z,16.90
2018-09-11T04:23:58.748Z,16.80
2018-09-11T04:26:26.795Z,16.80
2018-09-11T04:28:54.979Z,16.70
2018-09-11T04:31:23.024Z,16.70
2018-09-11T04:33:51.140Z,16.60
2018-09-11T04:36:19.270Z,16.50
2018-09-11T04:38:47.277Z,16.60
2018-09-11T04:41:15.314Z,16.60
2018-09-11T04:43:43.368Z,16.50
2018-09-11T04:46:12.291Z,16.50
2018-09-11T04:48:41.788Z,16.40
2018-09-11T04:51:09.824Z,16.40
2018-09-11T04:53:38.035Z,16.40
2018-09-11T04:56:06.218Z,16.30
2018-09-11T04:58:34.313Z,16.30
2018-09-11T05:01:02.548Z,16.30
2018-09-11T05:03:30.594Z,16.30
2018-09-11T05:05:58.833Z,16.30
2018-09-11T05:08:26.879Z,16.30
2018-09-11T05:10:55.134Z,16.30
2018-09-11T05:13:23.516Z,16.30
2018-09-11T05:15:51.908Z,16.30
2018-09-11T05:18:20.072Z,16.30
2018-09-11T05:20:48.238Z,16.30
2018-09-11T05:23:16.828Z,16.40
2018-09-11T05:25:44.895Z,16.50
2018-09-11T05:28:13.009Z,16.60
2018-09-11T05:30:41.055Z,16.70
2018-09-11T05:33:09.099Z,16.90
2018-09-11T05:35:37.147Z,17.10
2018-09-11T05:38:05.203Z,17.50
2018-09-11T05:40:33.244Z,18.10
2018-09-11T05:43:01.288Z,18.90
2018-09-11T05:45:29.336Z,19.60
2018-09-11T05:47:57.375Z,20.30
2018-09-11T05:50:26.321Z,21.50
2018-09-11T05:52:54.357Z,22.80
2018-09-11T05:55:22.471Z,23.70
2018-09-11T05:57:50.504Z,24.40
2018-09-11T06:00:18.548Z,24.70
2018-09-11T06:02:46.580Z,24.10
2018-09-11T06:05:14.628Z,23.50
2018-09-11T06:07:42.661Z,22.70
2018-09-11T06:10:10.725Z,22.30
2018-09-11T06:12:38.762Z,21.80
2018-09-11T06:15:06.839Z,21.50
2018-09-11T06:17:34.903Z,21.90
2018-09-11T06:20:02.948Z,22.20
2018-09-11T06:22:31.003Z,22.30
2018-09-11T06:24:59.048Z,22.40
2018-09-11T06:27:27.494Z,22.50
2018-09-11T06:29:55.556Z,22.70
2018-09-11T06:32:23.591Z,22.70
2018-09-11T06:34:51.637Z,22.70
2018-09-11T06:37:20.063Z,22.90
2018-09-11T06:39:48.108Z,23.20
2018-09-11T06:42:16.188Z,23.30
2018-09-11T06:44:44.279Z,23.10
2018-09-11T06:47:12.292Z,22.50
2018-09-11T06:49:40.343Z,21.80
2018-09-11T06:52:08.405Z,21.80
2018-09-11T06:54:36.484Z,22.20
2018-09-11T06:57:04.645Z,22.80
2018-09-11T06:59:32.688Z,23.50
2018-09-11T07:02:00.883Z,23.90
2018-09-11T07:04:28.843Z,24.40
2018-09-11T07:06:56.900Z,24.70
2018-09-11T07:09:24.959Z,25.10
2018-09-11T07:11:52.997Z,25.30
2018-09-11T07:14:21.395Z,25.40
2018-09-11T07:16:49.694Z,25.40
2018-09-11T07:19:17.739Z,25.60
2018-09-11T07:21:45.790Z,25.80
2018-09-11T07:24:13.840Z,26.00
2018-09-11T07:26:41.887Z,26.30
2018-09-11T07:29:09.995Z,26.30
2018-09-11T07:31:38.436Z,26.40
2018-09-11T07:34:06.500Z,26.70
2018-09-11T07:36:34.552Z,26.90
2018-09-11T07:39:02.600Z,26.90
2018-09-11T07:41:30.651Z,27.20
2018-09-11T07:43:58.692Z,27.60
2018-09-11T07:46:26.742Z,27.40
2018-09-11T07:48:55.100Z,27.20
2018-09-11T07:51:23.272Z,27.00
2018-09-11T07:53:51.340Z,26.80
2018-09-11T07:56:19.468Z,26.80
2018-09-11T07:58:47.502Z,26.70
2018-09-11T08:01:15.547Z,26.70
2018-09-11T08:03:43.604Z,26.90
2018-09-11T08:06:11.644Z,27.40
2018-09-11T08:08:39.684Z,28.10
2018-09-11T08:11:07.744Z,27.90
2018-09-11T08:13:35.782Z,27.80
2018-09-11T08:16:03.828Z,27.70
2018-09-11T08:18:31.863Z,27.80
2018-09-11T08:20:59.907Z,27.70
2018-09-11T08:23:27.946Z,27.60
2018-09-11T08:25:55.991Z,27.30
2018-09-11T08:28:24.091Z,27.40
2018-09-11T08:30:52.148Z,27.90
2018-09-11T08:33:20.191Z,27.90
2018-09-11T08:35:48.244Z,28.00
2018-09-11T08:38:16.377Z,27.80
2018-09-11T08:40:44.562Z,27.80
2018-09-11T08:43:13.124Z,27.80
2018-09-11T08:45:41.160Z,27.70
2018-09-11T08:48:09.197Z,27.80
2018-09-11T08:50:37.236Z,27.90
2018-09-11T08:53:05.272Z,28.10
2018-09-11T08:55:33.321Z,28.20
2018-09-11T08:58:01.360Z,28.30
2018-09-11T09:00:29.391Z,28.40
2018-09-11T09:02:57.427Z,28.60
2018-09-11T09:05:25.464Z,28.80
2018-09-11T09:07:53.501Z,28.70
2018-09-11T09:10:21.628Z,28.80
2018-09-11T09:12:49.667Z,29.20
2018-09-11T09:15:17.735Z,29.30
2018-09-11T09:17:45.813Z,29.10
2018-09-11T09:20:13.855Z,29.00
2018-09-11T09:22:41.915Z,29.20
2018-09-11T09:25:09.961Z,29.30
2018-09-11T09:27:38.122Z,29.10
2018-09-11T09:30:06.599Z,28.60
2018-09-11T09:32:34.644Z,28.40
2018-09-11T09:35:02.683Z,28.50
2018-09-11T09:37:30.744Z,28.40
2018-09-11T09:39:58.784Z,28.50
2018-09-11T09:42:26.830Z,28.50
2018-09-11T09:44:54.996Z,28.40
2018-09-11T09:47:23.048Z,28.40
2018-09-11T09:49:51.144Z,28.60
2018-09-11T09:52:19.216Z,28.40
2018-09-11T09:54:47.273Z,28.20
2018-09-11T09:57:15.315Z,28.00
2018-09-11T09:59:43.351Z,27.90
2018-09-11T10:02:17.003Z,27.60
2018-09-11T10:04:45.063Z,27.50
2018-09-11T10:07:13.167Z,27.50
2018-09-11T10:09:41.244Z,27.30
2018-09-11T10:12:09.285Z,27.10
2018-09-11T10:14:37.348Z,27.20
2018-09-11T10:17:06.608Z,27.20
2018-09-11T10:19:34.645Z,27.10
2018-09-11T10:22:02.932Z,27.10
2018-09-11T10:24:31.195Z,27.10
2018-09-11T10:26:59.376Z,27.10
2018-09-11T10:29:27.410Z,27.10
2018-09-11T10:31:55.463Z,26.90
2018-09-11T10:34:23.898Z,26.70
2018-09-11T10:36:52.056Z,26.80
2018-09-11T10:39:20.195Z,26.80
2018-09-11T10:41:48.246Z,26.80
2018-09-11T10:44:16.291Z,26.80
2018-09-11T10:46:44.360Z,26.90
2018-09-11T10:49:12.395Z,26.80
2018-09-11T10:51:40.460Z,26.80
2018-09-11T10:54:08.512Z,26.70
2018-09-11T10:56:36.674Z,26.50
2018-09-11T10:59:05.008Z,26.20
2018-09-11T11:01:33.063Z,26.00
2018-09-11T11:04:01.364Z,26.00
2018-09-11T11:06:29.421Z,25.80
2018-09-11T11:08:57.480Z,25.70
2018-09-11T11:11:25.567Z,25.50
2018-09-11T11:13:53.615Z,25.30
2018-09-11T11:16:21.660Z,25.40
2018-09-11T11:18:49.721Z,25.30
2018-09-11T11:21:18.045Z,25.30
2018-09-11T11:23:46.532Z,25.30
2018-09-11T11:26:14.591Z,25.30
2018-09-11T11:28:42.636Z,25.30
2018-09-11T11:31:10.671Z,25.30
2018-09-11T11:33:38.711Z,25.40
2018-09-11T11:36:06.837Z,25.40
2018-09-11T11:38:34.825Z,25.30
2018-09-11T11:41:02.873Z,25.30
2018-09-11T11:43:30.923Z,25.30
2018-09-11T11:45:58.961Z,25.30
2018-09-11T11:48:27.036Z,25.30
2018-09-11T11:50:55.072Z,25.40
2018-09-11T11:53:23.119Z,25.30
2018-09-11T11:55:51.159Z,25.30
2018-09-11T11:58:19.204Z,25.20
2018-09-11T12:00:47.252Z,25.30
2018-09-11T12:03:15.407Z,25.30
2018-09-11T12:05:43.491Z,25.30
2018-09-11T12:08:11.619Z,25.30
2018-09-11T12:10:39.653Z,25.40
2018-09-11T12:13:07.711Z,25.30
2018-09-11T12:15:35.739Z,25.40
2018-09-11T12:18:04.144Z,25.30
2018-09-11T12:20:32.167Z,25.10
2018-09-11T12:23:00.211Z,25.10
2018-09-11T12:25:28.273Z,25.10
2018-09-11T12:27:56.379Z,25.00
2018-09-11T12:30:24.452Z,25.10
2018-09-11T12:32:52.514Z,25.00
2018-09-11T12:35:20.544Z,25.10
2018-09-11T12:37:48.594Z,25.20
2018-09-11T12:40:16.643Z,25.10
2018-09-11T12:42:44.680Z,25.10
2018-09-11T12:45:12.716Z,25.20
2018-09-11T12:47:41.241Z,25.20
2018-09-11T12:50:08.805Z,25.10
2018-09-11T12:52:36.891Z,25.10
2018-09-11T12:55:04.963Z,25.10
2018-09-11T12:57:33.012Z,25.10
2018-09-11T13:00:01.068Z,25.10
2018-09-11T13:02:29.154Z,25.20
2018-09-11T13:04:57.151Z,25.40
2018-09-11T13:07:25.208Z,25.50
2018-09-11T13:09:53.247Z,25.50
2018-09-11T13:12:21.301Z,25.60
2018-09-11T13:14:49.348Z,25.60
2018-09-11T13:17:17.387Z,25.60
2018-09-11T13:19:45.435Z,25.60
2018-09-11T13:22:13.533Z,25.60
2018-09-11T13:24:41.632Z,25.70
2018-09-11T13:27:09.680Z,25.60
2018-09-11T13:29:37.728Z,25.70
2018-09-11T13:32:05.795Z,25.70
2018-09-11T13:34:33.865Z,25.60
2018-09-11T13:37:01.985Z,25.60
2018-09-11T13:39:30.032Z,25.60
2018-09-11T13:41:58.075Z,25.60
2018-09-11T13:44:26.135Z,25.60
2018-09-11T13:46:54.202Z,25.70
2018-09-11T13:49:22.323Z,25.80
2018-09-11T13:51:50.364Z,25.80
2018-09-11T13:54:18.403Z,25.80
2018-09-11T13:56:46.439Z,25.90
2018-09-11T13:59:14.528Z,25.90
2018-09-11T14:01:42.574Z,25.90
2018-09-11T14:04:10.620Z,25.90
2018-09-11T14:06:38.667Z,26.00
2018-09-11T14:09:08.944Z,26.00
2018-09-11T14:11:37.000Z,26.00
2018-09-11T14:14:05.052Z,26.10
2018-09-11T14:16:33.103Z,26.10
2018-09-11T14:19:01.184Z,26.00
2018-09-11T14:21:29.251Z,26.00
2018-09-11T14:23:57.329Z,26.00
2018-09-11T14:26:25.371Z,26.00
2018-09-11T14:28:53.416Z,25.90
2018-09-11T14:31:21.554Z,25.80
2018-09-11T14:33:49.608Z,25.90
2018-09-11T14:36:17.652Z,25.80
2018-09-11T14:38:45.697Z,25.80
2018-09-11T14:41:13.739Z,25.80
2018-09-11T14:43:41.782Z,25.90
2018-09-11T14:46:09.858Z,25.80
2018-09-11T14:48:37.911Z,25.80
2018-09-11T14:51:06.369Z,25.80
2018-09-11T14:53:34.431Z,25.80
2018-09-11T14:56:03.807Z,25.90
2018-09-11T14:58:31.897Z,25.80
2018-09-11T15:01:00.043Z,25.90
2018-09-11T15:03:28.088Z,25.90
2018-09-11T15:05:56.132Z,25.90
2018-09-11T15:08:24.175Z,25.80
2018-09-11T15:10:52.331Z,25.90
2018-09-11T15:13:20.536Z,25.90
2018-09-11T15:15:48.667Z,25.90
2018-09-11T15:18:16.747Z,25.90
2018-09-11T15:20:44.795Z,25.90
2018-09-11T15:23:12.851Z,25.80
2018-09-11T15:25:40.952Z,25.80
2018-09-11T15:28:09.127Z,25.90
2018-09-11T15:30:37.177Z,25.80
2018-09-11T15:33:05.268Z,25.80
2018-09-11T15:35:33.306Z,25.70
2018-09-11T15:38:01.349Z,25.70
2018-09-11T15:40:29.396Z,25.70
2018-09-11T15:42:57.548Z,25.70
2018-09-11T15:45:25.638Z,25.70
2018-09-11T15:47:53.668Z,25.70
2018-09-11T15:50:21.779Z,25.80
2018-09-11T15:52:49.820Z,25.80
2018-09-11T15:55:17.867Z,25.80
2018-09-11T15:57:45.933Z,25.80
2018-09-11T16:00:13.988Z,25.70
2018-09-11T16:02:42.111Z,25.70
2018-09-11T16:05:10.211Z,25.70
2018-09-11T16:07:38.348Z,25.70
2018-09-11T16:10:07.096Z,25.70
2018-09-11T16:12:35.215Z,25.60
2018-09-11T16:15:03.422Z,25.70
2018-09-11T16:17:31.406Z,25.60
2018-09-11T16:19:59.491Z,25.60
2018-09-11T16:22:27.607Z,25.50
2018-09-11T16:24:55.832Z,25.50
2018-09-11T16:27:23.871Z,25.50
2018-09-11T16:29:52.086Z,25.40
2018-09-11T16:32:20.128Z,25.40
2018-09-11T16:34:48.164Z,25.30
2018-09-11T16:37:16.211Z,25.30
2018-09-11T16:39:44.304Z,25.20
2018-09-11T16:42:12.345Z,25.10
2018-09-11T16:44:40.391Z,25.10
2018-09-11T16:47:08.428Z,25.00
2018-09-11T16:49:36.484Z,24.90
2018-09-11T16:52:04.560Z,24.80
2018-09-11T16:54:32.600Z,24.80
2018-09-11T16:57:00.632Z,24.70
2018-09-11T16:59:28.678Z,24.60
2018-09-11T17:01:56.789Z,24.60
2018-09-11T17:04:24.770Z,24.50
2018-09-11T17:06:52.804Z,24.40
2018-09-11T17:09:20.851Z,24.40
2018-09-11T17:11:48.907Z,24.20
2018-09-11T17:14:16.959Z,24.10
2018-09-11T17:16:45.005Z,24.00
2018-09-11T17:19:13.141Z,24.00
2018-09-11T17:21:41.179Z,23.90
2018-09-11T17:24:09.228Z,23.80
2018-09-11T17:26:37.276Z,23.70
2018-09-11T17:29:05.332Z,23.60
2018-09-11T17:31:33.376Z,23.50
2018-09-11T17:34:01.422Z,23.40
2018-09-11T17:36:29.475Z,23.30
2018-09-11T17:38:57.529Z,23.20
2018-09-11T17:41:25.568Z,23.10
2018-09-11T17:43:53.656Z,23.00
2018-09-11T17:46:22.056Z,23.00
2018-09-11T17:48:50.401Z,22.80
2018-09-11T17:51:18.423Z,22.70
2018-09-11T17:53:46.477Z,22.60
2018-09-11T17:56:14.523Z,22.40
2018-09-11T17:58:42.575Z,22.30
2018-09-11T18:01:10.627Z,22.10
2018-09-11T18:03:38.655Z,22.00
2018-09-11T18:06:06.984Z,21.90
2018-09-11T18:08:35.083Z,21.80
2018-09-11T18:11:03.120Z,21.70
2018-09-11T18:13:31.163Z,21.60
2018-09-11T18:15:59.223Z,21.50
2018-09-11T18:18:27.268Z,21.40
2018-09-11T18:20:55.321Z,21.30
2018-09-11T18:23:23.393Z,21.30
2018-09-11T18:25:51.464Z,21.20
2018-09-11T18:28:19.496Z,21.10
2018-09-11T18:30:47.548Z,21.10
2018-09-11T18:33:15.604Z,21.00
2018-09-11T18:35:43.704Z,20.90
2018-09-11T18:38:11.752Z,20.90
2018-09-11T18:40:39.820Z,20.90
2018-09-11T18:43:07.993Z,20.80
2018-09-11T18:45:36.124Z,20.80
2018-09-11T18:48:04.614Z,20.70
2018-09-11T18:50:32.668Z,20.70
2018-09-11T18:53:00.705Z,20.70
2018-09-11T18:55:28.951Z,20.70
2018-09-11T18:57:57.011Z,20.70
2018-09-11T19:00:28.063Z,20.70
2018-09-11T19:02:56.720Z,20.80
2018-09-11T19:05:24.820Z,20.80
2018-09-11T19:07:52.876Z,20.90
2018-09-11T19:10:21.024Z,20.90
2018-09-11T19:12:49.148Z,20.90
2018-09-11T19:15:17.157Z,20.90
2018-09-11T19:17:45.235Z,20.90
2018-09-11T19:20:13.303Z,20.90
2018-09-11T19:22:41.336Z,20.90
2018-09-11T19:25:09.375Z,20.90
2018-09-11T19:27:37.424Z,20.90
2018-09-11T19:30:07.644Z,20.90
2018-09-11T19:32:35.707Z,20.90
2018-09-11T19:35:03.788Z,20.90
2018-09-11T19:37:32.061Z,20.90
2018-09-11T19:40:00.264Z,21.00
2018-09-11T19:42:28.355Z,21.00
2018-09-11T19:44:56.380Z,21.00
2018-09-11T19:47:24.461Z,21.00
2018-09-11T19:49:52.516Z,21.00
2018-09-11T19:52:20.588Z,21.00
2018-09-11T19:54:48.652Z,21.00
2018-09-11T19:57:16.691Z,21.00
2018-09-11T19:59:44.740Z,20.90
2018-09-11T20:02:12.784Z,20.80
2018-09-11T20:04:40.824Z,20.80
2018-09-11T20:07:08.866Z,20.70
2018-09-11T20:09:36.920Z,20.70
2018-09-11T20:12:04.988Z,20.60
2018-09-11T20:14:33.047Z,20.50
2018-09-11T20:17:01.132Z,20.50
2018-09-11T20:19:29.383Z,20.50
2018-09-11T20:21:57.736Z,20.50
2018-09-11T20:24:25.776Z,20.50
2018-09-11T20:26:53.811Z,20.60
2018-09-11T20:29:21.856Z,20.70
2018-09-11T20:31:49.959Z,20.70
2018-09-11T20:34:17.959Z,20.80
2018-09-11T20:36:46.048Z,20.80
2018-09-11T20:39:14.097Z,20.70
2018-09-11T20:41:42.142Z,20.70
2018-09-11T20:44:11.024Z,20.70
2018-09-11T20:46:39.160Z,20.70
2018-09-11T20:49:07.332Z,20.70
2018-09-11T20:51:35.399Z,20.70
2018-09-11T20:54:03.440Z,20.60
2018-09-11T20:56:31.476Z,20.60
2018-09-11T20:58:59.708Z,20.70
2018-09-11T21:01:27.784Z,20.60
2018-09-11T21:03:55.836Z,20.60
2018-09-11T21:06:24.080Z,20.60
2018-09-11T21:08:52.099Z,20.50
2018-09-11T21:11:20.159Z,20.60
2018-09-11T21:13:48.241Z,20.60
2018-09-11T21:16:16.279Z,20.60
2018-09-11T21:18:44.329Z,20.60
2018-09-11T21:21:12.472Z,20.60
2018-09-11T21:23:40.516Z,20.60
2018-09-11T21:26:08.599Z,20.60
2018-09-11T21:28:36.643Z,20.60
2018-09-11T21:31:04.680Z,20.70
2018-09-11T21:33:32.719Z,20.60
2018-09-11T21:36:00.748Z,20.60
2018-09-11T21:38:28.808Z,20.50
2018-09-11T21:40:56.862Z,20.50
2018-09-11T21:43:24.991Z,20.50
2018-09-11T21:45:53.040Z,20.50
2018-09-11T21:48:21.082Z,20.50
2018-09-11T21:50:49.129Z,20.40
2018-09-11T21:53:17.279Z,20.30
2018-09-11T21:55:45.312Z,20.30
2018-09-11T21:58:13.415Z,20.20
2018-09-11T22:00:47.049Z,20.10
2018-09-11T22:03:15.111Z,20.10
2018-09-11T22:05:43.158Z,20.00
2018-09-11T22:08:11.200Z,20.00
2018-09-11T22:10:39.261Z,20.00
2018-09-11T22:13:07.368Z,19.90
2018-09-11T22:15:35.412Z,20.00
2018-09-11T22:18:03.465Z,20.00
2018-09-11T22:20:31.509Z,20.00
2018-09-11T22:22:59.575Z,20.00
2018-09-11T22:25:27.620Z,20.10
2018-09-11T22:27:55.675Z,20.10
2018-09-11T22:30:23.724Z,20.10
2018-09-11T22:32:51.772Z,20.10
2018-09-11T22:35:19.924Z,20.10
2018-09-11T22:37:47.971Z,20.10
2018-09-11T22:40:16.037Z,20.10
2018-09-11T22:42:44.088Z,20.10
2018-09-11T22:45:12.167Z,20.20
2018-09-11T22:47:40.311Z,20.10
2018-09-11T22:50:08.435Z,20.10
2018-09-11T22:52:36.480Z,20.00
2018-09-11T22:55:04.540Z,20.10
2018-09-11T22:57:32.596Z,20.10
2018-09-11T23:00:00.643Z,20.00
2018-09-11T23:02:28.708Z,20.00
2018-09-11T23:04:56.751Z,19.90
2018-09-11T23:07:24.815Z,19.90
2018-09-11T23:09:52.870Z,19.80
2018-09-11T23:12:20.964Z,19.80
2018-09-11T23:14:49.000Z,19.80
2018-09-11T23:17:17.060Z,19.80
2018-09-11T23:19:45.135Z,19.70
2018-09-11T23:22:13.183Z,19.70
2018-09-11T23:24:41.216Z,19.60
2018-09-11T23:27:09.251Z,19.60
2018-09-11T23:29:37.296Z,19.70
2018-09-11T23:32:05.333Z,19.60
2018-09-11T23:34:33.373Z,19.60
2018-09-11T23:37:01.423Z,19.50
2018-09-11T23:39:29.480Z,19.50
2018-09-11T23:41:57.524Z,19.50
2018-09-11T23:44:25.597Z,19.40
2018-09-11T23:46:53.629Z,19.40
2018-09-11T23:49:21.676Z,19.50
2018-09-11T23:51:49.704Z,19.50
2018-09-11T23:54:17.747Z,19.40
2018-09-11T23:56:45.795Z,19.40
2018-09-11T23:59:13.987Z,19.40
